createdAt,value
2017-11-29T00:01:26.557Z,11.20
2017-11-29T00:03:54.493Z,15.02
2017-11-29T00:06:22.575Z,14.25
2017-11-29T00:08:51.285Z,13.10
2017-11-29T00:11:19.326Z,14.80
2017-11-29T00:13:47.363Z,10.38
2017-11-29T00:16:15.449Z,11.63
2017-11-29T00:18:43.436Z,10.95
2017-11-29T00:21:11.422Z,14.93
2017-11-29T00:23:39.381Z,14.13
2017-11-29T00:26:07.408Z,13.70
2017-11-29T00:28:35.853Z,10.13
2017-11-29T00:31:03.925Z,11.15
2017-11-29T00:33:31.835Z,10.75
2017-11-29T00:36:01.972Z,10.68
2017-11-29T00:38:29.945Z,11.50
2017-11-29T00:40:57.996Z,11.02
2017-11-29T00:43:25.916Z,12.02
2017-11-29T00:45:55.770Z,12.15
2017-11-29T00:48:23.784Z,11.82
2017-11-29T00:50:51.857Z,11.52
2017-11-29T00:53:19.832Z,17.00
2017-11-29T00:55:48.137Z,16.73
2017-11-29T00:58:16.930Z,12.30
2017-11-29T01:00:46.351Z,13.90
2017-11-29T01:03:14.322Z,11.15
2017-11-29T01:05:42.438Z,10.63
2017-11-29T01:08:14.518Z,11.88
2017-11-29T01:10:51.427Z,11.30
2017-11-29T01:13:28.426Z,13.20
2017-11-29T01:15:56.892Z,12.40
2017-11-29T01:18:24.833Z,11.43
2017-11-29T01:20:53.439Z,12.05
2017-11-29T01:23:21.425Z,11.98
2017-11-29T01:25:49.329Z,16.15
2017-11-29T01:28:17.323Z,12.07
2017-11-29T01:30:45.234Z,11.73
2017-11-29T01:33:13.250Z,11.75
2017-11-29T01:35:41.195Z,12.52
2017-11-29T01:38:09.176Z,18.17
2017-11-29T01:40:37.111Z,12.70
2017-11-29T01:43:05.104Z,10.75
2017-11-29T01:45:33.030Z,14.75
2017-11-29T01:48:01.754Z,12.07
2017-11-29T01:50:29.666Z,10.82
2017-11-29T01:52:57.628Z,12.52
2017-11-29T01:55:25.529Z,10.48
2017-11-29T01:57:53.488Z,10.18
2017-11-29T02:00:21.502Z,11.52
2017-11-29T02:02:49.462Z,13.32
2017-11-29T02:05:17.367Z,10.50
2017-11-29T02:07:45.452Z,14.05
2017-11-29T02:10:13.355Z,11.38
2017-11-29T02:12:41.310Z,10.27
2017-11-29T02:15:09.207Z,10.75
2017-11-29T02:17:37.160Z,8.90
2017-11-29T02:20:05.168Z,10.90
2017-11-29T02:22:33.207Z,10.95
2017-11-29T02:25:01.958Z,11.50
2017-11-29T02:27:29.996Z,12.05
2017-11-29T02:29:57.996Z,14.48
2017-11-29T02:32:26.036Z,11.20
2017-11-29T02:34:54.010Z,12.70
2017-11-29T02:37:22.080Z,12.63
2017-11-29T02:40:01.693Z,11.27
2017-11-29T02:42:43.150Z,10.45
2017-11-29T02:45:11.970Z,11.40
2017-11-29T02:47:40.073Z,11.35
2017-11-29T02:50:08.053Z,11.38
2017-11-29T02:52:36.085Z,9.27
2017-11-29T02:55:04.061Z,11.85
2017-11-29T02:57:32.096Z,11.12
2017-11-29T03:00:00.084Z,10.20
2017-11-29T03:02:28.115Z,10.20
2017-11-29T03:04:56.022Z,10.80
2017-11-29T03:07:24.028Z,14.32
2017-11-29T03:09:51.941Z,13.95
2017-11-29T03:12:19.915Z,11.27
2017-11-29T03:14:47.825Z,10.82
2017-11-29T03:17:16.172Z,12.02
2017-11-29T03:19:44.131Z,10.02
2017-11-29T03:22:12.076Z,11.77
2017-11-29T03:24:39.980Z,12.60
2017-11-29T03:27:07.978Z,13.35
2017-11-29T03:29:40.418Z,11.40
2017-11-29T03:32:13.556Z,12.60
2017-11-29T03:34:41.677Z,10.15
2017-11-29T03:37:09.637Z,10.30
2017-11-29T03:39:37.534Z,11.48
2017-11-29T03:42:05.528Z,14.23
2017-11-29T03:44:33.428Z,11.98
2017-11-29T03:47:01.404Z,13.15
2017-11-29T03:49:29.303Z,11.40
2017-11-29T03:51:57.269Z,11.02
2017-11-29T03:54:25.188Z,10.88
2017-11-29T03:56:54.099Z,10.85
2017-11-29T03:59:22.012Z,10.85
2017-11-29T04:01:49.952Z,14.15
2017-11-29T04:04:17.861Z,13.50
2017-11-29T04:06:45.889Z,11.77
2017-11-29T04:09:13.850Z,11.75
2017-11-29T04:11:41.813Z,12.48
2017-11-29T04:14:09.841Z,13.77
2017-11-29T04:16:38.575Z,12.18
2017-11-29T04:19:06.567Z,11.88
2017-11-29T04:21:34.498Z,13.35
2017-11-29T04:24:02.529Z,12.85
2017-11-29T04:26:30.637Z,11.45
2017-11-29T04:28:58.593Z,13.98
2017-11-29T04:31:26.510Z,13.07
2017-11-29T04:33:54.483Z,14.40
2017-11-29T04:36:22.394Z,12.43
2017-11-29T04:38:50.364Z,16.30
2017-11-29T04:41:19.044Z,15.93
2017-11-29T04:43:47.082Z,12.68
2017-11-29T04:46:15.020Z,13.62
2017-11-29T04:48:43.069Z,14.23
2017-11-29T04:51:11.070Z,13.27
2017-11-29T04:53:39.127Z,12.13
2017-11-29T04:56:07.322Z,13.18
2017-11-29T04:58:35.405Z,11.77
2017-11-29T05:01:03.460Z,12.35
2017-11-29T05:03:31.580Z,14.73
2017-11-29T05:05:59.660Z,12.80
2017-11-29T05:08:27.777Z,18.05
2017-11-29T05:10:55.780Z,13.35
2017-11-29T05:13:23.814Z,13.82
2017-11-29T05:15:59.313Z,19.30
2017-11-29T05:18:28.434Z,15.73
2017-11-29T05:21:01.698Z,12.80
2017-11-29T05:23:36.619Z,14.90
2017-11-29T05:26:10.406Z,15.80
2017-11-29T05:28:43.685Z,16.17
2017-11-29T05:31:18.535Z,14.70
2017-11-29T05:33:52.367Z,14.60
2017-11-29T05:36:25.688Z,15.75
2017-11-29T05:38:58.571Z,16.52
2017-11-29T05:41:26.849Z,15.90
2017-11-29T05:43:54.890Z,18.35
2017-11-29T05:46:22.869Z,13.93
2017-11-29T05:48:50.909Z,15.50
2017-11-29T05:51:18.929Z,12.57
2017-11-29T05:53:46.987Z,14.80
2017-11-29T05:56:15.133Z,14.52
2017-11-29T05:58:45.069Z,19.80
2017-11-29T06:01:13.117Z,15.60
2017-11-29T06:03:41.186Z,17.87
2017-11-29T06:06:09.168Z,18.80
2017-11-29T06:08:37.193Z,14.43
2017-11-29T06:11:05.944Z,15.63
2017-11-29T06:13:33.964Z,16.95
2017-11-29T06:16:02.686Z,15.82
2017-11-29T06:18:30.715Z,20.40
2017-11-29T06:20:58.649Z,16.85
2017-11-29T06:23:26.631Z,16.23
2017-11-29T06:25:54.709Z,16.15
2017-11-29T06:28:22.684Z,16.20
2017-11-29T06:30:50.577Z,16.27
2017-11-29T06:33:18.528Z,17.92
2017-11-29T06:35:46.412Z,15.98
2017-11-29T06:38:14.353Z,14.93
2017-11-29T06:40:42.231Z,13.60
2017-11-29T06:43:10.175Z,17.98
2017-11-29T06:45:38.053Z,15.15
2017-11-29T06:48:05.989Z,17.08
2017-11-29T06:50:33.874Z,17.08
2017-11-29T06:53:01.815Z,15.43
2017-11-29T06:55:29.697Z,16.92
2017-11-29T06:57:57.587Z,16.85
2017-11-29T07:00:25.532Z,18.33
2017-11-29T07:02:53.423Z,15.60
2017-11-29T07:05:21.362Z,17.15
2017-11-29T07:07:49.292Z,13.35
2017-11-29T07:10:17.247Z,14.85
2017-11-29T07:12:45.145Z,13.57
2017-11-29T07:15:13.123Z,13.48
2017-11-29T07:17:41.018Z,14.68
2017-11-29T07:20:08.956Z,17.50
2017-11-29T07:22:37.103Z,15.90
2017-11-29T07:25:05.106Z,18.55
2017-11-29T07:27:32.990Z,15.82
2017-11-29T07:30:00.932Z,15.20
2017-11-29T07:32:29.593Z,19.17
2017-11-29T07:34:57.550Z,17.80
2017-11-29T07:37:25.447Z,19.92
2017-11-29T07:39:53.382Z,23.08
2017-11-29T07:42:21.261Z,19.87
2017-11-29T07:44:49.204Z,22.58
2017-11-29T07:47:19.183Z,21.50
2017-11-29T07:49:47.886Z,17.73
2017-11-29T07:52:15.781Z,20.88
2017-11-29T07:54:43.722Z,22.17
2017-11-29T07:57:12.395Z,18.52
2017-11-29T07:59:41.174Z,18.92
2017-11-29T08:02:09.123Z,21.48
2017-11-29T08:04:37.018Z,18.20
2017-11-29T08:07:05.004Z,21.17
2017-11-29T08:09:32.977Z,19.20
2017-11-29T08:12:01.737Z,19.62
2017-11-29T08:14:29.697Z,19.75
2017-11-29T08:16:57.651Z,18.65
2017-11-29T08:19:25.548Z,18.73
2017-11-29T08:21:53.495Z,18.17
2017-11-29T08:24:21.389Z,40.97
2017-11-29T08:26:49.438Z,35.58
2017-11-29T08:29:17.385Z,22.62
2017-11-29T08:31:45.356Z,17.77
2017-11-29T08:34:13.305Z,15.75
2017-11-29T08:36:41.291Z,28.52
2017-11-29T08:39:09.310Z,15.07
2017-11-29T08:41:37.396Z,22.15
2017-11-29T08:44:06.136Z,15.15
2017-11-29T08:46:34.240Z,23.08
2017-11-29T08:49:02.215Z,18.27
2017-11-29T08:51:30.258Z,30.77
2017-11-29T08:53:58.224Z,16.23
2017-11-29T08:56:26.285Z,17.45
2017-11-29T08:58:54.269Z,19.65
2017-11-29T09:01:22.208Z,14.43
2017-11-29T09:03:50.239Z,13.85
2017-11-29T09:06:18.214Z,15.68
2017-11-29T09:08:46.236Z,14.15
2017-11-29T09:11:14.181Z,16.33
2017-11-29T09:13:42.200Z,12.82
2017-11-29T09:16:15.577Z,15.38
2017-11-29T09:18:43.598Z,15.45
2017-11-29T09:21:11.930Z,13.95
2017-11-29T09:23:39.962Z,15.60
2017-11-29T09:26:07.916Z,14.48
2017-11-29T09:28:35.967Z,12.88
2017-11-29T09:31:03.962Z,11.12
2017-11-29T09:33:31.964Z,15.73
2017-11-29T09:35:59.939Z,16.12
2017-11-29T09:38:27.957Z,16.15
2017-11-29T09:40:55.918Z,13.93
2017-11-29T09:43:23.946Z,15.15
2017-11-29T09:45:51.962Z,14.13
2017-11-29T09:48:19.986Z,15.82
2017-11-29T09:50:47.961Z,14.50
2017-11-29T09:53:15.990Z,16.12
2017-11-29T09:55:44.038Z,15.52
2017-11-29T09:58:12.112Z,18.05
2017-11-29T10:00:40.077Z,16.60
2017-11-29T10:03:08.218Z,15.27
2017-11-29T10:05:36.201Z,12.73
2017-11-29T10:08:04.188Z,13.32
2017-11-29T10:10:32.205Z,13.40
2017-11-29T10:13:00.187Z,11.77
2017-11-29T10:15:28.209Z,12.10
2017-11-29T10:17:56.234Z,12.45
2017-11-29T10:20:25.017Z,12.57
2017-11-29T10:22:53.047Z,15.32
2017-11-29T10:25:21.136Z,13.15
2017-11-29T10:27:49.142Z,11.10
2017-11-29T10:30:17.221Z,9.90
2017-11-29T10:32:45.627Z,10.75
2017-11-29T10:35:13.706Z,12.77
2017-11-29T10:37:41.809Z,9.10
2017-11-29T10:40:09.847Z,8.45
2017-11-29T10:42:37.821Z,7.35
2017-11-29T10:45:05.845Z,6.97
2017-11-29T10:47:33.820Z,5.93
2017-11-29T10:50:02.601Z,6.25
2017-11-29T10:52:31.338Z,8.65
2017-11-29T10:54:59.350Z,7.15
2017-11-29T10:57:30.973Z,5.90
2017-11-29T10:59:58.992Z,8.18
2017-11-29T11:02:27.802Z,6.78
2017-11-29T11:04:55.829Z,7.10
2017-11-29T11:07:23.799Z,8.88
2017-11-29T11:09:52.259Z,8.77
2017-11-29T11:12:20.220Z,7.75
2017-11-29T11:14:48.250Z,7.18
2017-11-29T11:17:16.217Z,7.90
2017-11-29T11:19:44.230Z,8.68
2017-11-29T11:22:12.780Z,8.68
2017-11-29T11:24:40.846Z,11.97
2017-11-29T11:27:10.021Z,5.83
2017-11-29T11:29:38.568Z,6.57
2017-11-29T11:32:06.528Z,6.33
2017-11-29T11:34:34.957Z,8.10
2017-11-29T11:37:02.991Z,7.50
2017-11-29T11:39:31.699Z,6.13
2017-11-29T11:41:59.690Z,6.23
2017-11-29T11:44:29.229Z,7.35
2017-11-29T11:46:57.575Z,7.25
2017-11-29T11:49:26.422Z,8.05
2017-11-29T11:51:54.381Z,7.72
2017-11-29T11:54:22.419Z,6.82
2017-11-29T11:56:51.172Z,7.07
2017-11-29T11:59:19.186Z,7.72
2017-11-29T12:01:47.937Z,6.60
2017-11-29T12:04:16.050Z,6.95
2017-11-29T12:06:44.062Z,8.88
2017-11-29T12:09:12.154Z,10.82
2017-11-29T12:11:40.113Z,9.90
2017-11-29T12:14:08.130Z,6.87
2017-11-29T12:16:36.117Z,10.73
2017-11-29T12:19:04.148Z,9.90
2017-11-29T12:21:32.149Z,5.93
2017-11-29T12:24:00.953Z,5.27
2017-11-29T12:26:29.631Z,7.80
2017-11-29T12:28:57.639Z,5.33
2017-11-29T12:31:25.647Z,7.40
2017-11-29T12:33:53.658Z,8.33
2017-11-29T12:36:22.398Z,4.10
2017-11-29T12:38:50.474Z,8.53
2017-11-29T12:41:18.465Z,7.23
2017-11-29T12:43:46.491Z,8.10
2017-11-29T12:46:14.529Z,7.37
2017-11-29T12:48:54.696Z,6.75
2017-11-29T12:51:22.667Z,10.13
2017-11-29T12:53:50.674Z,8.52
2017-11-29T12:56:18.851Z,8.32
2017-11-29T12:58:46.862Z,8.20
2017-11-29T13:01:14.907Z,11.25
2017-11-29T13:03:42.897Z,11.88
2017-11-29T13:06:12.031Z,15.02
2017-11-29T13:08:40.103Z,10.20
2017-11-29T13:11:08.143Z,8.75
2017-11-29T13:13:37.044Z,9.88
2017-11-29T13:16:05.197Z,7.65
2017-11-29T13:18:33.186Z,10.00
2017-11-29T13:21:01.986Z,7.72
2017-11-29T13:23:32.301Z,9.35
2017-11-29T13:26:00.357Z,11.23
2017-11-29T13:28:28.350Z,8.32
2017-11-29T13:30:56.417Z,11.20
2017-11-29T13:33:24.639Z,11.20
2017-11-29T13:35:52.858Z,8.07
2017-11-29T13:38:20.990Z,13.85
2017-11-29T13:40:49.690Z,10.05
2017-11-29T13:43:17.703Z,10.27
2017-11-29T13:45:46.364Z,10.23
2017-11-29T13:48:14.415Z,11.20
2017-11-29T13:50:42.898Z,9.07
2017-11-29T13:53:10.963Z,13.35
2017-11-29T13:55:39.582Z,11.65
2017-11-29T13:58:07.669Z,11.02
2017-11-29T14:00:37.004Z,10.55
2017-11-29T14:03:04.960Z,10.43
2017-11-29T14:05:34.129Z,17.35
2017-11-29T14:08:03.212Z,11.25
2017-11-29T14:10:31.232Z,14.32
2017-11-29T14:12:59.203Z,11.90
2017-11-29T14:15:33.799Z,11.10
2017-11-29T14:18:01.923Z,10.95
2017-11-29T14:20:29.928Z,11.50
2017-11-29T14:22:58.604Z,9.77
2017-11-29T14:25:26.570Z,13.90
2017-11-29T14:27:55.437Z,13.88
2017-11-29T14:30:26.366Z,10.63
2017-11-29T14:32:54.279Z,13.35
2017-11-29T14:35:22.248Z,11.55
2017-11-29T14:37:54.183Z,10.82
2017-11-29T14:40:22.191Z,11.95
2017-11-29T14:42:50.907Z,12.23
2017-11-29T14:45:18.860Z,12.15
2017-11-29T14:47:46.879Z,12.55
2017-11-29T14:50:14.822Z,11.90
2017-11-29T14:52:42.839Z,12.35
2017-11-29T14:55:10.759Z,10.35
2017-11-29T14:57:38.735Z,13.35
2017-11-29T15:00:06.658Z,10.57
2017-11-29T15:02:34.654Z,13.10
2017-11-29T15:05:02.593Z,9.80
2017-11-29T15:07:30.753Z,11.45
2017-11-29T15:09:58.675Z,12.88
2017-11-29T15:12:26.699Z,9.93
2017-11-29T15:14:54.622Z,8.48
2017-11-29T15:17:22.578Z,12.10
2017-11-29T15:19:51.251Z,9.95
2017-11-29T15:22:19.217Z,9.85
2017-11-29T15:24:47.139Z,12.73
2017-11-29T15:27:23.574Z,10.93
2017-11-29T15:29:52.295Z,13.25
2017-11-29T15:32:20.306Z,8.88
2017-11-29T15:34:48.223Z,12.98
2017-11-29T15:37:16.205Z,10.38
2017-11-29T15:39:44.178Z,9.93
2017-11-29T15:42:12.196Z,9.43
2017-11-29T15:44:40.122Z,9.63
2017-11-29T15:47:08.089Z,12.75
2017-11-29T15:49:36.238Z,9.90
2017-11-29T15:52:04.180Z,9.93
2017-11-29T15:54:32.295Z,8.30
2017-11-29T15:57:04.170Z,7.87
2017-11-29T15:59:32.133Z,9.02
2017-11-29T16:02:00.076Z,7.57
2017-11-29T16:04:28.822Z,9.93
2017-11-29T16:06:56.750Z,10.30
2017-11-29T16:09:24.738Z,14.60
2017-11-29T16:11:52.658Z,11.85
2017-11-29T16:14:20.648Z,8.45
2017-11-29T16:17:01.455Z,8.52
2017-11-29T16:19:29.482Z,13.82
2017-11-29T16:21:57.483Z,11.48
2017-11-29T16:24:25.515Z,10.85
2017-11-29T16:26:54.228Z,12.55
2017-11-29T16:29:22.238Z,11.02
2017-11-29T16:31:50.230Z,7.07
2017-11-29T16:34:18.235Z,17.35
2017-11-29T16:36:46.166Z,10.40
2017-11-29T16:39:14.179Z,10.50
2017-11-29T16:41:42.150Z,11.23
2017-11-29T16:44:10.112Z,10.75
2017-11-29T16:46:38.800Z,11.48
2017-11-29T16:49:06.767Z,12.15
2017-11-29T16:51:35.471Z,12.10
2017-11-29T16:54:03.487Z,12.82
2017-11-29T16:56:31.416Z,9.73
2017-11-29T16:58:59.366Z,7.50
2017-11-29T17:01:27.286Z,10.60
2017-11-29T17:03:55.220Z,8.63
2017-11-29T17:06:23.175Z,9.77
2017-11-29T17:08:51.982Z,8.88
2017-11-29T17:11:20.815Z,11.10
2017-11-29T17:13:49.387Z,9.88
2017-11-29T17:16:17.660Z,13.38
2017-11-29T17:18:45.627Z,11.25
2017-11-29T17:21:13.619Z,11.90
2017-11-29T17:23:41.553Z,10.98
2017-11-29T17:26:12.869Z,14.70
2017-11-29T17:28:41.633Z,8.90
2017-11-29T17:31:09.648Z,10.90
2017-11-29T17:33:37.623Z,7.95
2017-11-29T17:36:05.915Z,11.00
2017-11-29T17:38:33.921Z,10.80
2017-11-29T17:41:01.897Z,9.50
2017-11-29T17:43:29.845Z,11.32
2017-11-29T17:45:57.870Z,9.55
2017-11-29T17:48:25.841Z,11.63
2017-11-29T17:50:55.009Z,9.93
2017-11-29T17:53:22.947Z,11.32
2017-11-29T17:55:50.919Z,11.77
2017-11-29T17:58:18.850Z,11.48
2017-11-29T18:00:46.898Z,11.38
2017-11-29T18:03:15.322Z,9.30
2017-11-29T18:05:43.348Z,11.10
2017-11-29T18:08:11.268Z,12.98
2017-11-29T18:10:39.430Z,13.32
2017-11-29T18:13:07.398Z,8.68
2017-11-29T18:15:35.398Z,11.65
2017-11-29T18:18:03.344Z,11.75
2017-11-29T18:20:31.463Z,8.85
2017-11-29T18:22:59.493Z,12.30
2017-11-29T18:25:27.473Z,13.32
2017-11-29T18:27:56.545Z,10.00
2017-11-29T18:30:24.495Z,12.65
2017-11-29T18:32:53.221Z,11.25
2017-11-29T18:35:21.140Z,11.60
2017-11-29T18:37:49.098Z,13.07
2017-11-29T18:40:17.064Z,11.00
2017-11-29T18:42:45.039Z,11.15
2017-11-29T18:45:12.953Z,10.70
2017-11-29T18:47:40.971Z,13.02
2017-11-29T18:50:08.917Z,12.80
2017-11-29T18:52:36.931Z,14.10
2017-11-29T18:55:04.974Z,10.52
2017-11-29T18:57:33.181Z,11.77
2017-11-29T19:00:01.166Z,11.43
2017-11-29T19:02:30.002Z,14.50
2017-11-29T19:04:57.934Z,14.75
2017-11-29T19:07:25.960Z,13.80
2017-11-29T19:09:53.960Z,14.93
2017-11-29T19:12:22.791Z,17.00
2017-11-29T19:14:50.738Z,15.15
2017-11-29T19:17:18.921Z,13.27
2017-11-29T19:19:46.827Z,14.35
2017-11-29T19:22:17.023Z,12.25
2017-11-29T19:24:47.394Z,15.25
2017-11-29T19:27:16.485Z,18.27
2017-11-29T19:29:45.805Z,15.55
2017-11-29T19:32:14.205Z,16.65
2017-11-29T19:34:42.517Z,16.58
2017-11-29T19:37:11.124Z,14.65
2017-11-29T19:39:39.912Z,13.25
2017-11-29T19:42:09.392Z,14.13
2017-11-29T19:44:37.863Z,13.57
2017-11-29T19:47:06.528Z,17.83
2017-11-29T19:49:35.820Z,19.23
2017-11-29T19:52:04.340Z,21.25
2017-11-29T19:54:32.864Z,12.93
2017-11-29T19:57:01.422Z,13.45
2017-11-29T19:59:29.736Z,16.42
2017-11-29T20:01:58.403Z,17.45
2017-11-29T20:04:28.078Z,16.92
2017-11-29T20:06:59.185Z,12.52
2017-11-29T20:09:27.885Z,16.50
2017-11-29T20:11:56.900Z,15.02
2017-11-29T20:14:25.991Z,19.02
2017-11-29T20:16:54.029Z,17.70
2017-11-29T20:19:22.054Z,17.02
2017-11-29T20:21:50.786Z,13.70
2017-11-29T20:24:19.015Z,16.55
2017-11-29T20:26:47.467Z,17.77
2017-11-29T20:29:15.947Z,15.88
2017-11-29T20:31:44.678Z,20.30
2017-11-29T20:34:13.356Z,17.10
2017-11-29T20:36:45.610Z,13.13
2017-11-29T20:39:14.118Z,13.60
2017-11-29T20:41:42.688Z,16.92
2017-11-29T20:44:11.208Z,15.88
2017-11-29T20:46:39.730Z,15.15
2017-11-29T20:49:08.155Z,15.45
2017-11-29T20:51:36.462Z,12.88
2017-11-29T20:54:05.035Z,12.73
2017-11-29T20:56:33.867Z,12.85
2017-11-29T20:59:02.504Z,12.13
2017-11-29T21:01:30.491Z,13.85
2017-11-29T21:03:58.463Z,15.90
2017-11-29T21:06:29.665Z,13.85
2017-11-29T21:09:08.836Z,16.10
2017-11-29T21:11:37.163Z,19.55
2017-11-29T21:14:05.134Z,14.95
2017-11-29T21:16:36.504Z,17.48
2017-11-29T21:19:04.531Z,20.37
2017-11-29T21:21:33.198Z,14.75
2017-11-29T21:24:01.126Z,18.92
2017-11-29T21:26:29.036Z,17.17
2017-11-29T21:28:56.998Z,16.42
2017-11-29T21:31:24.893Z,16.95
2017-11-29T21:33:53.598Z,19.55
2017-11-29T21:36:21.499Z,15.95
2017-11-29T21:38:49.451Z,13.95
2017-11-29T21:41:17.362Z,16.65
2017-11-29T21:43:45.326Z,18.02
2017-11-29T21:46:13.346Z,15.43
2017-11-29T21:48:41.345Z,17.27
2017-11-29T21:51:10.033Z,15.73
2017-11-29T21:53:37.988Z,17.55
2017-11-29T21:56:05.891Z,17.05
2017-11-29T21:58:33.851Z,17.58
2017-11-29T22:01:01.882Z,16.70
2017-11-29T22:03:29.843Z,20.02
2017-11-29T22:05:58.528Z,22.98
2017-11-29T22:08:27.269Z,17.40
2017-11-29T22:10:55.178Z,22.45
2017-11-29T22:13:23.132Z,22.17
2017-11-29T22:15:51.132Z,24.63
2017-11-29T22:18:19.091Z,33.13
2017-11-29T22:20:47.743Z,29.15
2017-11-29T22:23:15.694Z,27.30
2017-11-29T22:25:43.687Z,21.77
2017-11-29T22:28:11.709Z,24.58
2017-11-29T22:30:39.647Z,15.75
2017-11-29T22:33:07.601Z,16.52
2017-11-29T22:35:35.522Z,14.77
2017-11-29T22:38:03.485Z,17.02
2017-11-29T22:40:31.423Z,17.62
2017-11-29T22:42:59.455Z,15.55
2017-11-29T22:45:27.349Z,14.63
2017-11-29T22:47:55.311Z,17.23
2017-11-29T22:50:23.220Z,18.85
2017-11-29T22:52:51.939Z,14.63
2017-11-29T22:55:19.903Z,20.42
2017-11-29T22:57:47.844Z,17.92
2017-11-29T23:00:30.651Z,16.25
2017-11-29T23:02:58.615Z,19.42
2017-11-29T23:05:26.525Z,25.52
2017-11-29T23:07:54.792Z,24.12
2017-11-29T23:10:22.839Z,22.92
2017-11-29T23:12:50.801Z,23.25
2017-11-29T23:15:18.744Z,22.20
2017-11-29T23:17:46.645Z,30.60
2017-11-29T23:20:14.609Z,24.67
2017-11-29T23:22:42.751Z,24.17
2017-11-29T23:25:10.697Z,21.48
2017-11-29T23:27:40.548Z,24.58
2017-11-29T23:30:08.575Z,17.77
2017-11-29T23:32:36.640Z,17.12
2017-11-29T23:35:04.626Z,29.67
2017-11-29T23:37:32.564Z,19.70
2017-11-29T23:40:00.560Z,22.92
2017-11-29T23:42:28.459Z,39.25
2017-11-29T23:44:56.707Z,17.87
2017-11-29T23:47:26.481Z,19.50
2017-11-29T23:49:54.466Z,20.33
2017-11-29T23:52:23.172Z,47.28
2017-11-29T23:54:51.161Z,26.70
2017-11-29T23:57:19.102Z,25.73
2017-11-29T23:59:47.834Z,63.38
